Terminal Aerodrome Forecast
Issued by NWS

Home | Current Version | Previous Version | Text Only | Print | Product List | Glossary On
Versions: 1 2 3 4 5 6 7 8 9 10 11 12 13 14 15
000
FTUS45 KPSR 251724
TAFIWA
TAF
KIWA 251724Z 2518/2618 14012KT P6SM SCT150 BKN250
     FM252000 27010G17KT P6SM FEW150 SCT250
      TEMPO 2522/2601 27012G20KT
     FM260300 27008KT P6SM SCT150 BKN250
     FM260400 12007KT P6SM SCT150=

USA.gov is the U.S. government's official web portal to all federal, state and local government web resources and services.